createdAt,value
2017-12-04T00:04:01.044Z,5.70
2017-12-04T00:09:04.469Z,5.90
2017-12-04T00:14:07.119Z,5.97
2017-12-04T00:19:09.679Z,5.30
2017-12-04T00:24:12.244Z,5.70
2017-12-04T00:29:15.584Z,5.10
2017-12-04T00:34:18.207Z,5.40
2017-12-04T00:39:20.811Z,6.20
2017-12-04T00:44:23.438Z,5.33
2017-12-04T00:49:26.814Z,5.67
2017-12-04T00:54:29.397Z,5.40
2017-12-04T00:59:32.278Z,5.20
2017-12-04T01:04:34.987Z,5.50
2017-12-04T01:09:37.565Z,5.33
2017-12-04T01:14:40.220Z,5.67
2017-12-04T01:19:42.882Z,5.27
2017-12-04T01:24:45.621Z,4.90
2017-12-04T01:29:48.252Z,5.00
2017-12-04T01:34:50.843Z,5.30
2017-12-04T01:39:53.819Z,5.13
2017-12-04T01:44:56.436Z,5.50
2017-12-04T01:49:59.899Z,5.20
2017-12-04T01:55:02.760Z,5.07
2017-12-04T02:00:05.988Z,4.80
2017-12-04T02:05:08.569Z,4.80
2017-12-04T02:10:11.158Z,5.33
2017-12-04T02:15:13.832Z,4.60
2017-12-04T02:20:16.428Z,4.93
2017-12-04T02:25:19.037Z,4.93
2017-12-04T02:30:25.404Z,4.47
2017-12-04T02:35:27.967Z,4.97
2017-12-04T02:40:30.540Z,4.87
2017-12-04T02:45:33.155Z,4.50
2017-12-04T02:50:35.776Z,4.20
2017-12-04T02:55:38.397Z,4.13
2017-12-04T03:00:41.807Z,4.80
2017-12-04T03:05:44.438Z,4.47
2017-12-04T03:10:46.996Z,4.17
2017-12-04T03:15:49.632Z,4.60
2017-12-04T03:20:52.233Z,4.47
2017-12-04T03:25:54.855Z,4.73
2017-12-04T03:30:57.455Z,4.37
2017-12-04T03:36:00.097Z,4.53
2017-12-04T03:41:02.711Z,4.17
2017-12-04T03:46:05.306Z,3.90
2017-12-04T03:51:07.878Z,4.20
2017-12-04T03:56:10.490Z,4.53
2017-12-04T04:01:13.087Z,4.13
2017-12-04T04:06:15.681Z,4.40
2017-12-04T04:11:18.279Z,3.87
2017-12-04T04:16:20.843Z,3.83
2017-12-04T04:21:23.422Z,4.13
2017-12-04T04:26:26.857Z,3.87
2017-12-04T04:31:29.488Z,4.70
2017-12-04T04:36:32.152Z,4.73
2017-12-04T04:41:34.770Z,4.83
2017-12-04T04:46:37.418Z,3.40
2017-12-04T04:51:40.152Z,3.50
2017-12-04T04:56:42.778Z,3.97
2017-12-04T05:01:45.426Z,4.20
2017-12-04T05:06:48.885Z,3.27
2017-12-04T05:11:51.487Z,4.10
2017-12-04T05:16:54.106Z,4.10
2017-12-04T05:21:56.719Z,4.07
2017-12-04T05:26:59.342Z,4.00
2017-12-04T05:32:01.930Z,3.33
2017-12-04T05:37:04.507Z,3.73
2017-12-04T05:42:07.899Z,4.00
2017-12-04T05:47:10.506Z,4.20
2017-12-04T05:52:13.190Z,3.37
2017-12-04T05:57:15.756Z,3.67
2017-12-04T06:02:18.362Z,3.40
2017-12-04T06:07:20.940Z,3.50
2017-12-04T06:12:23.509Z,3.10
2017-12-04T06:17:26.076Z,3.30
2017-12-04T06:22:29.448Z,3.40
2017-12-04T06:27:32.166Z,3.50
2017-12-04T06:32:34.761Z,3.40
2017-12-04T06:37:37.436Z,3.30
2017-12-04T06:42:40.071Z,3.10
2017-12-04T06:47:43.321Z,3.57
2017-12-04T06:52:45.938Z,3.67
2017-12-04T06:57:48.499Z,3.40
2017-12-04T07:02:51.126Z,3.20
2017-12-04T07:07:53.975Z,3.47
2017-12-04T07:12:56.564Z,3.40
2017-12-04T07:17:59.177Z,3.60
2017-12-04T07:23:02.526Z,3.43
2017-12-04T07:28:05.120Z,3.83
2017-12-04T07:33:07.682Z,3.20
2017-12-04T07:38:11.123Z,3.17
2017-12-04T07:43:13.853Z,3.33
2017-12-04T07:48:16.447Z,3.10
2017-12-04T07:53:19.071Z,2.77
2017-12-04T07:58:22.450Z,3.00
2017-12-04T08:03:25.073Z,3.20
2017-12-04T08:08:27.670Z,3.30
2017-12-04T08:13:31.025Z,2.70
2017-12-04T08:18:33.672Z,3.53
2017-12-04T08:23:36.243Z,2.77
2017-12-04T08:28:38.932Z,3.50
2017-12-04T08:33:41.554Z,3.00
2017-12-04T08:38:44.158Z,3.10
2017-12-04T08:43:47.130Z,2.90
2017-12-04T08:48:49.807Z,2.70
2017-12-04T08:53:52.450Z,2.23
2017-12-04T08:58:55.113Z,2.90
2017-12-04T09:03:57.753Z,3.13
2017-12-04T09:09:00.378Z,2.87
2017-12-04T09:14:02.974Z,3.00
2017-12-04T09:19:06.130Z,2.43
2017-12-04T09:24:08.707Z,2.93
2017-12-04T09:29:11.378Z,2.57
2017-12-04T09:34:15.431Z,2.27
2017-12-04T09:39:18.861Z,2.37
2017-12-04T09:44:21.455Z,2.47
2017-12-04T09:49:24.051Z,2.83
2017-12-04T09:54:27.459Z,2.57
2017-12-04T09:59:30.038Z,2.57
2017-12-04T10:04:32.646Z,2.40
2017-12-04T10:09:35.302Z,2.73
2017-12-04T10:14:37.908Z,2.50
2017-12-04T10:19:40.457Z,2.50
2017-12-04T10:24:43.048Z,2.13
2017-12-04T10:29:45.780Z,2.67
2017-12-04T10:34:49.980Z,2.60
2017-12-04T10:39:52.588Z,2.93
2017-12-04T10:44:55.240Z,2.20
2017-12-04T10:49:57.820Z,2.70
2017-12-04T10:55:00.405Z,2.50
2017-12-04T11:00:02.979Z,1.90
2017-12-04T11:05:06.340Z,2.23
2017-12-04T11:10:09.109Z,2.10
2017-12-04T11:15:11.749Z,2.23
2017-12-04T11:20:14.347Z,1.80
2017-12-04T11:25:17.063Z,2.20
2017-12-04T11:30:19.671Z,3.00
2017-12-04T11:35:22.256Z,2.40
2017-12-04T11:40:24.865Z,1.77
2017-12-04T11:45:28.208Z,2.47
2017-12-04T11:50:30.820Z,2.40
2017-12-04T11:55:33.447Z,2.30
2017-12-04T12:00:36.059Z,2.30
2017-12-04T12:05:38.665Z,2.63
2017-12-04T12:10:41.338Z,2.27
2017-12-04T12:15:43.926Z,2.33
2017-12-04T12:20:46.482Z,2.17
2017-12-04T12:25:49.071Z,2.97
2017-12-04T12:30:51.654Z,2.80
2017-12-04T12:35:54.229Z,3.40
2017-12-04T12:40:56.883Z,3.53
2017-12-04T12:45:59.480Z,2.90
2017-12-04T12:51:02.062Z,3.20
2017-12-04T12:56:04.672Z,2.90
2017-12-04T13:01:07.263Z,2.80
2017-12-04T13:06:09.905Z,3.50
2017-12-04T13:11:12.465Z,3.63
2017-12-04T13:16:15.041Z,3.17
2017-12-04T13:21:17.608Z,2.90
2017-12-04T13:26:20.428Z,3.20
2017-12-04T13:31:23.629Z,2.97
2017-12-04T13:36:40.038Z,3.20
2017-12-04T13:41:42.656Z,3.27
2017-12-04T13:46:46.172Z,2.90
2017-12-04T13:51:48.862Z,3.20
2017-12-04T13:56:51.455Z,2.70
2017-12-04T14:01:54.711Z,3.03
2017-12-04T14:06:57.309Z,2.30
2017-12-04T14:11:59.938Z,3.27
2017-12-04T14:17:02.636Z,3.40
2017-12-04T14:22:05.981Z,3.00
2017-12-04T14:27:08.574Z,3.13
2017-12-04T14:32:11.242Z,2.80
2017-12-04T14:37:13.822Z,2.97
2017-12-04T14:42:17.156Z,2.93
2017-12-04T14:47:21.581Z,2.50
2017-12-04T14:52:24.370Z,3.33
2017-12-04T14:57:26.960Z,2.77
2017-12-04T15:02:29.774Z,3.57
2017-12-04T15:07:33.145Z,3.00
2017-12-04T15:12:35.769Z,2.80
2017-12-04T15:17:38.372Z,2.90
2017-12-04T15:22:41.779Z,2.60
2017-12-04T15:27:44.348Z,2.40
2017-12-04T15:32:48.193Z,3.73
2017-12-04T15:37:50.791Z,2.60
2017-12-04T15:42:53.379Z,3.23
2017-12-04T15:47:55.984Z,2.50
2017-12-04T15:52:58.600Z,3.30
2017-12-04T15:58:01.186Z,2.83
2017-12-04T16:03:03.739Z,3.20
2017-12-04T16:08:06.340Z,3.17
2017-12-04T16:13:08.970Z,2.80
2017-12-04T16:18:11.555Z,3.47
2017-12-04T16:23:14.118Z,3.13
2017-12-04T16:28:19.112Z,3.07
2017-12-04T16:33:21.722Z,3.23
2017-12-04T16:38:24.335Z,3.60
2017-12-04T16:43:27.064Z,3.53
2017-12-04T16:48:31.800Z,3.20
2017-12-04T16:53:34.418Z,2.80
2017-12-04T16:58:37.031Z,3.30
2017-12-04T17:03:40.455Z,2.77
2017-12-04T17:08:43.377Z,2.83
2017-12-04T17:13:46.777Z,2.77
2017-12-04T17:18:49.432Z,3.53
2017-12-04T17:23:52.049Z,3.00
2017-12-04T17:28:54.770Z,2.90
2017-12-04T17:33:57.514Z,2.77
2017-12-04T17:39:00.333Z,2.73
2017-12-04T17:44:02.936Z,2.87
2017-12-04T17:49:05.541Z,2.40
2017-12-04T17:54:08.904Z,2.70
2017-12-04T17:59:11.470Z,2.80
2017-12-04T18:04:14.415Z,2.90
2017-12-04T18:09:17.031Z,3.00
2017-12-04T18:14:19.653Z,2.50
2017-12-04T18:19:22.231Z,2.90
2017-12-04T18:24:25.595Z,2.97
2017-12-04T18:29:28.205Z,2.40
2017-12-04T18:34:30.824Z,2.50
2017-12-04T18:39:33.440Z,2.97
2017-12-04T18:44:36.090Z,2.60
2017-12-04T18:49:38.741Z,3.20
2017-12-04T18:54:41.304Z,3.00
2017-12-04T18:59:45.706Z,3.57
2017-12-04T19:04:48.338Z,3.40
2017-12-04T19:09:51.063Z,3.73
2017-12-04T19:14:53.753Z,4.10
2017-12-04T19:19:56.353Z,5.83
2017-12-04T19:24:59.380Z,4.77
2017-12-04T19:30:03.170Z,4.70
2017-12-04T19:35:06.521Z,4.73
2017-12-04T19:40:09.288Z,4.70
2017-12-04T19:45:12.630Z,4.87
2017-12-04T19:50:15.244Z,4.90
2017-12-04T19:55:17.884Z,4.90
2017-12-04T20:00:25.913Z,5.40
2017-12-04T20:05:28.489Z,5.40
2017-12-04T20:10:31.143Z,5.70
2017-12-04T20:15:33.794Z,6.47
2017-12-04T20:20:36.463Z,6.00
2017-12-04T20:25:40.147Z,5.43
2017-12-04T20:30:42.790Z,6.17
2017-12-04T20:35:45.372Z,6.23
2017-12-04T20:40:48.112Z,6.23
2017-12-04T20:45:50.859Z,7.47
2017-12-04T20:50:53.455Z,7.00
2017-12-04T20:55:56.080Z,6.60
2017-12-04T21:00:58.692Z,6.13
2017-12-04T21:06:02.074Z,8.00
2017-12-04T21:11:16.352Z,7.50
2017-12-04T21:16:44.664Z,7.80
2017-12-04T21:21:48.006Z,8.03
2017-12-04T21:26:50.618Z,7.40
2017-12-04T21:31:53.221Z,7.67
2017-12-04T21:36:56.726Z,7.97
2017-12-04T21:42:00.014Z,8.07
2017-12-04T21:47:02.614Z,8.20
2017-12-04T21:52:05.182Z,8.00
2017-12-04T21:57:08.724Z,8.70
2017-12-04T22:02:11.774Z,7.80
2017-12-04T22:07:14.416Z,8.60
2017-12-04T22:12:17.613Z,8.77
2017-12-04T22:17:20.969Z,8.67
2017-12-04T22:22:24.340Z,8.40
2017-12-04T22:27:27.688Z,8.90
2017-12-04T22:32:30.285Z,8.37
2017-12-04T22:37:33.071Z,7.60
2017-12-04T22:42:35.662Z,7.97
2017-12-04T22:47:38.314Z,8.07
2017-12-04T22:52:40.919Z,7.80
2017-12-04T22:57:43.566Z,9.63
2017-12-04T23:02:47.068Z,7.73
2017-12-04T23:07:49.725Z,7.20
2017-12-04T23:12:52.315Z,8.70
2017-12-04T23:17:56.342Z,7.70
2017-12-04T23:22:58.912Z,7.30
2017-12-04T23:28:01.519Z,7.53
2017-12-04T23:33:04.098Z,7.27
2017-12-04T23:38:06.683Z,7.30
2017-12-04T23:43:10.321Z,7.10
2017-12-04T23:48:14.638Z,7.83
2017-12-04T23:53:17.229Z,8.20
2017-12-04T23:58:19.844Z,7.20
